Time;durP1;ratioP1;P1;durP2;ratioP2;P2;SDS_P1;SDS_P2;PMS_P1;PMS_P2;Temp;Humidity;BMP_temperature;BMP_pressure;BME280_temperature;BME280_humidity;BME280_pressure;Samples;Min_cycle;Max_cycle;Signal;HPM_P1;HPM_P2
2021/09/09 00:00:44;;;;;;;16.73;14.97;;;16.40;99.90;;;;;;5028261;28;20184;-65
2021/09/09 00:03:10;;;;;;;17.30;15.60;;;16.40;99.90;;;;;;5032825;28;20171;-66
2021/09/09 00:05:35;;;;;;;17.70;15.83;;;16.40;99.90;;;;;;5018629;28;20223;-65
2021/09/09 00:08:01;;;;;;;17.10;15.30;;;16.40;99.90;;;;;;5013069;28;20204;-66
2021/09/09 00:10:27;;;;;;;17.60;15.70;;;16.40;99.90;;;;;;5024405;28;20176;-65
2021/09/09 00:12:53;;;;;;;18.53;15.90;;;16.40;99.90;;;;;;5032651;28;20211;-65
2021/09/09 00:15:18;;;;;;;18.80;16.80;;;16.40;99.90;;;;;;5022013;28;20330;-66
2021/09/09 00:17:44;;;;;;;17.90;15.63;;;16.40;99.90;;;;;;5012491;28;20183;-65
2021/09/09 00:20:10;;;;;;;15.90;14.40;;;16.50;99.90;;;;;;5020791;28;20282;-64
2021/09/09 00:22:36;;;;;;;17.37;15.57;;;16.50;99.90;;;;;;5032479;28;20182;-65
2021/09/09 00:25:03;;;;;;;19.33;15.23;;;16.50;99.90;;;;;;5025117;28;20187;-65
2021/09/09 00:27:28;;;;;;;18.33;15.67;;;16.50;99.90;;;;;;5012548;28;20249;-67
2021/09/09 00:29:54;;;;;;;17.43;15.67;;;16.50;99.90;;;;;;5017344;28;20238;-66
2021/09/09 00:32:19;;;;;;;19.07;16.40;;;16.50;99.90;;;;;;5031346;28;20217;-66
2021/09/09 00:34:45;;;;;;;16.97;15.17;;;16.50;99.90;;;;;;5012281;28;20295;-66
2021/09/09 00:37:11;;;;;;;16.77;15.13;;;16.60;99.90;;;;;;5012198;28;20168;-67
2021/09/09 00:39:37;;;;;;;15.40;13.27;;;16.60;99.90;;;;;;5030783;28;20207;-65
2021/09/09 00:42:02;;;;;;;15.17;13.57;;;16.70;99.90;;;;;;5031885;28;20172;-65
2021/09/09 00:44:29;;;;;;;17.43;15.27;;;16.70;99.90;;;;;;5014513;28;20184;-66
2021/09/09 00:47:09;;;;;;;16.03;14.43;;;16.70;99.90;;;;;;5012441;28;20653;-65
2021/09/09 00:49:39;;;;;;;15.67;14.03;;;16.70;99.90;;;;;;5029135;28;20647;-66
2021/09/09 00:52:08;;;;;;;16.37;14.77;;;16.70;99.90;;;;;;5031856;28;20185;-66
2021/09/09 00:54:34;;;;;;;16.10;14.60;;;16.70;99.90;;;;;;5014845;28;20207;-66
2021/09/09 00:57:03;;;;;;;17.87;16.03;;;16.70;99.90;;;;;;5012135;28;20218;-66
2021/09/09 00:59:31;;;;;;;15.77;14.27;;;16.70;99.90;;;;;;5027256;28;20553;-65
2021/09/09 01:01:56;;;;;;;16.37;14.63;;;16.70;99.90;;;;;;5014761;28;20177;-66
2021/09/09 01:04:22;;;;;;;16.80;15.07;;;16.70;99.90;;;;;;5012058;28;20177;-66
2021/09/09 01:06:48;;;;;;;15.97;13.53;;;16.70;99.90;;;;;;5025056;28;20189;-66
2021/09/09 01:09:14;;;;;;;16.07;14.50;;;16.60;99.90;;;;;;5031888;28;20199;-66
2021/09/09 01:11:40;;;;;;;16.10;14.57;;;16.60;99.90;;;;;;5019534;28;20267;-66
2021/09/09 01:14:07;;;;;;;17.27;15.47;;;16.60;99.90;;;;;;5011957;28;20358;-65
2021/09/09 01:16:34;;;;;;;15.27;13.77;;;16.50;99.90;;;;;;5021482;28;20233;-66
2021/09/09 01:18:59;;;;;;;22.30;15.10;;;16.60;99.90;;;;;;5025130;28;20232;-66
2021/09/09 01:21:25;;;;;;;19.63;14.93;;;16.50;99.90;;;;;;5011588;28;20677;-66
2021/09/09 01:23:54;;;;;;;16.40;14.70;;;16.50;99.90;;;;;;5015816;28;20207;-66
2021/09/09 01:26:20;;;;;;;17.23;15.23;;;16.50;99.90;;;;;;5031591;28;20535;-65
2021/09/09 01:28:46;;;;;;;16.87;15.10;;;16.40;99.90;;;;;;5027774;28;20192;-65
2021/09/09 01:31:14;;;;;;;18.83;15.50;;;16.40;99.90;;;;;;5011441;28;20302;-66
2021/09/09 01:33:39;;;;;;;16.83;15.13;;;16.40;99.90;;;;;;5013404;28;20203;-66
2021/09/09 01:36:05;;;;;;;17.60;15.80;;;16.40;99.90;;;;;;5031237;28;20673;-66
2021/09/09 01:38:31;;;;;;;16.10;14.40;;;16.30;99.90;;;;;;5030892;28;20214;-67
2021/09/09 01:40:56;;;;;;;17.57;15.70;;;16.40;99.90;;;;;;5031068;28;20515;-66
2021/09/09 01:43:22;;;;;;;17.27;15.47;;;16.30;99.90;;;;;;5017880;28;20176;-65
2021/09/09 01:45:47;;;;;;;16.83;15.03;;;16.30;99.90;;;;;;5011476;28;20172;-65
2021/09/09 01:48:13;;;;;;;16.33;14.73;;;16.30;99.90;;;;;;5024145;28;20306;-66
2021/09/09 01:50:39;;;;;;;16.53;14.83;;;16.30;99.90;;;;;;5035013;28;20237;-67
2021/09/09 01:53:05;;;;;;;16.20;14.57;;;16.30;99.90;;;;;;5023484;28;20271;-65
2021/09/09 01:55:31;;;;;;;16.83;15.03;;;16.30;99.90;;;;;;5015299;28;20663;-66
2021/09/09 01:57:56;;;;;;;16.33;14.67;;;16.30;99.90;;;;;;5025117;28;20310;-65
2021/09/09 02:00:22;;;;;;;16.37;14.47;;;16.30;99.90;;;;;;5034713;28;20533;-65
2021/09/09 02:02:48;;;;;;;17.77;15.97;;;16.30;99.90;;;;;;5025108;28;20266;-66
2021/09/09 02:05:14;;;;;;;17.10;15.07;;;16.30;99.90;;;;;;5015257;28;20204;-65
2021/09/09 02:07:40;;;;;;;16.80;15.00;;;16.30;99.90;;;;;;5021777;28;20211;-66
2021/09/09 02:10:07;;;;;;;18.50;16.57;;;16.20;99.90;;;;;;5034454;28;20280;-65
2021/09/09 02:12:33;;;;;;;17.60;15.73;;;16.10;99.90;;;;;;5029162;28;20184;-65
2021/09/09 02:14:58;;;;;;;16.90;15.30;;;16.10;99.90;;;;;;5014059;28;20230;-66
2021/09/09 02:17:24;;;;;;;18.33;15.90;;;16.00;99.90;;;;;;5018636;28;20262;-66
2021/09/09 02:19:50;;;;;;;16.87;15.27;;;16.00;99.90;;;;;;5034215;28;20560;-64
2021/09/09 02:22:16;;;;;;;21.87;16.33;;;16.00;99.90;;;;;;5032409;28;20714;-65
2021/09/09 02:24:45;;;;;;;17.90;14.87;;;16.10;99.90;;;;;;5014701;28;20184;-65
2021/09/09 02:27:15;;;;;;;16.90;15.10;;;16.00;99.90;;;;;;5032458;28;20225;-65
2021/09/09 02:29:44;;;;;;;15.93;14.10;;;16.00;99.90;;;;;;5033637;28;20553;-65
2021/09/09 02:32:10;;;;;;;17.23;14.70;;;16.00;99.90;;;;;;5017074;28;20861;-64
2021/09/09 02:34:37;;;;;;;16.00;14.33;;;16.00;99.90;;;;;;5014812;28;20291;-65
2021/09/09 02:37:03;;;;;;;16.50;14.83;;;16.00;99.90;;;;;;5030232;28;20182;-66
2021/09/09 02:39:29;;;;;;;17.40;14.67;;;16.00;99.90;;;;;;5034214;28;20226;-65
2021/09/09 02:41:55;;;;;;;17.63;15.63;;;16.00;99.90;;;;;;5020184;28;20573;-66
2021/09/09 02:44:20;;;;;;;19.63;15.73;;;16.00;99.90;;;;;;5014711;28;20184;-64
2021/09/09 02:46:46;;;;;;;15.93;14.30;;;16.00;99.90;;;;;;5026566;28;20187;-65
2021/09/09 02:49:11;;;;;;;16.27;14.57;;;16.00;99.90;;;;;;5034207;28;20695;-66
2021/09/09 02:51:37;;;;;;;15.83;14.30;;;16.00;99.90;;;;;;5023170;28;20210;-67
2021/09/09 02:54:02;;;;;;;17.17;15.57;;;15.90;99.90;;;;;;5020036;28;20224;-64
2021/09/09 02:56:28;;;;;;;15.87;14.10;;;15.90;99.90;;;;;;5034142;28;20537;-64
2021/09/09 02:58:57;;;;;;;16.27;14.57;;;16.00;99.90;;;;;;5029120;28;20204;-66
2021/09/09 03:01:23;;;;;;;16.67;14.67;;;16.00;99.90;;;;;;5014069;28;20226;-65
2021/09/09 03:03:48;;;;;;;16.47;14.77;;;16.00;99.90;;;;;;5016900;28;20660;-68
2021/09/09 03:06:14;;;;;;;16.30;14.70;;;16.00;99.90;;;;;;5033985;28;20187;-64
2021/09/09 03:08:39;;;;;;;17.53;15.30;;;16.00;99.90;;;;;;5032485;28;20195;-66
2021/09/09 03:11:05;;;;;;;16.77;14.93;;;16.00;99.90;;;;;;5013990;28;20206;-65
2021/09/09 03:13:31;;;;;;;16.67;14.97;;;16.00;99.90;;;;;;5014398;28;20576;-65
2021/09/09 03:15:56;;;;;;;14.97;13.47;;;15.90;99.90;;;;;;5033067;28;20730;-65
2021/09/09 03:18:22;;;;;;;15.17;13.67;;;15.90;99.90;;;;;;5025049;28;20204;-65
2021/09/09 03:20:48;;;;;;;16.63;14.90;;;15.90;99.90;;;;;;5012752;28;20255;-64
2021/09/09 03:23:13;;;;;;;15.27;13.63;;;15.90;99.90;;;;;;5027068;28;20762;-65
2021/09/09 03:25:39;;;;;;;15.00;13.50;;;15.90;99.90;;;;;;5033881;28;20183;-64
2021/09/09 03:28:04;;;;;;;16.97;14.07;;;15.90;99.90;;;;;;5022203;28;20208;-65
2021/09/09 03:30:30;;;;;;;16.13;14.43;;;15.90;99.90;;;;;;5013877;28;20180;-66
2021/09/09 03:32:56;;;;;;;16.73;15.00;;;15.90;99.90;;;;;;5023335;28;20317;-65
2021/09/09 03:35:22;;;;;;;15.57;13.97;;;15.90;99.90;;;;;;5032503;28;20757;-65
2021/09/09 03:37:48;;;;;;;20.70;14.67;;;15.90;99.90;;;;;;5025669;28;20184;-65
2021/09/09 03:40:14;;;;;;;15.47;13.97;;;15.90;99.90;;;;;;5013270;28;20171;-65
2021/09/09 03:42:40;;;;;;;15.80;14.07;;;15.90;99.90;;;;;;5013614;28;20530;-65
2021/09/09 03:45:06;;;;;;;15.60;14.00;;;15.90;99.90;;;;;;5013531;28;20191;-65
2021/09/09 03:47:31;;;;;;;15.73;13.83;;;15.90;99.90;;;;;;5016415;28;20175;-65
2021/09/09 03:49:57;;;;;;;16.23;14.17;;;15.90;99.90;;;;;;5032323;28;20250;-64
2021/09/09 03:52:24;;;;;;;16.80;14.63;;;15.90;99.90;;;;;;5026095;28;20179;-66
2021/09/09 03:54:49;;;;;;;17.37;14.53;;;15.90;99.90;;;;;;5033084;28;20210;-65
2021/09/09 03:57:15;;;;;;;17.77;15.30;;;15.90;99.90;;;;;;5014787;28;20184;-66
2021/09/09 03:59:41;;;;;;;17.77;15.90;;;15.90;99.90;;;;;;5012802;28;20192;-65
2021/09/09 04:02:06;;;;;;;19.47;15.80;;;15.90;99.90;;;;;;5029376;28;20179;-64
2021/09/09 04:04:32;;;;;;;19.77;16.30;;;15.90;99.90;;;;;;5032943;28;20645;-64
2021/09/09 04:06:58;;;;;;;18.87;16.87;;;15.90;99.90;;;;;;5018259;28;20212;-65
2021/09/09 04:09:23;;;;;;;18.73;16.23;;;15.90;99.90;;;;;;5012896;28;20239;-65
2021/09/09 04:11:49;;;;;;;20.90;17.00;;;15.90;99.90;;;;;;5015792;28;20701;-65
2021/09/09 04:14:15;;;;;;;21.70;16.77;;;15.90;99.90;;;;;;5012908;28;20211;-65
2021/09/09 04:16:40;;;;;;;20.57;16.40;;;15.90;99.90;;;;;;5023537;28;20214;-65
2021/09/09 04:19:06;;;;;;;19.93;16.83;;;15.90;99.90;;;;;;5025415;28;20283;-66
2021/09/09 04:21:32;;;;;;;18.97;16.63;;;15.90;99.90;;;;;;5012743;28;20172;-67
2021/09/09 04:23:57;;;;;;;18.43;16.37;;;15.90;99.90;;;;;;5017862;28;20180;-69
2021/09/09 04:26:23;;;;;;;17.70;15.80;;;15.90;99.90;;;;;;5032652;28;20176;-66
2021/09/09 04:28:49;;;;;;;18.10;16.10;;;15.90;99.90;;;;;;5028969;28;20228;-66
2021/09/09 04:31:14;;;;;;;19.17;16.17;;;15.90;99.90;;;;;;5012589;28;20645;-66
2021/09/09 04:33:40;;;;;;;17.97;16.17;;;15.90;99.90;;;;;;5013979;28;20172;-67
2021/09/09 04:36:06;;;;;;;15.97;14.30;;;15.80;99.90;;;;;;5032227;28;20265;-68
2021/09/09 04:38:32;;;;;;;17.20;15.40;;;15.80;99.90;;;;;;5032136;28;20270;-67
2021/09/09 04:40:57;;;;;;;19.20;16.50;;;15.80;99.90;;;;;;5012520;28;20187;-66
2021/09/09 04:43:23;;;;;;;18.13;16.23;;;15.80;99.90;;;;;;5012504;28;20744;-67
2021/09/09 04:45:49;;;;;;;17.83;16.13;;;15.80;99.90;;;;;;5029950;28;20215;-66
2021/09/09 04:50:43;;;;;;;20.00;16.60;;;15.80;99.90;;;;;;5049112;28;20268;-65
2021/09/09 04:53:08;;;;;;;17.93;16.07;;;15.70;99.90;;;;;;5038062;28;20571;-64
2021/09/09 04:55:34;;;;;;;16.67;15.07;;;15.70;99.90;;;;;;5032038;28;20449;-64
2021/09/09 04:57:59;;;;;;;17.33;15.50;;;15.70;99.90;;;;;;5040729;28;20179;-64
2021/09/09 05:00:25;;;;;;;17.37;15.50;;;15.70;99.90;;;;;;5070837;28;20221;-65
2021/09/09 05:02:51;;;;;;;18.40;16.53;;;15.70;99.90;;;;;;5062615;28;20190;-65
2021/09/09 05:05:16;;;;;;;17.20;15.43;;;15.70;99.90;;;;;;5049731;28;20547;-64
2021/09/09 05:07:42;;;;;;;18.10;16.23;;;15.70;99.90;;;;;;5057540;28;20182;-64
2021/09/09 05:10:09;;;;;;;20.20;16.70;;;15.70;99.90;;;;;;5071181;28;20193;-65
2021/09/09 05:12:34;;;;;;;16.57;14.83;;;15.70;99.90;;;;;;5064913;28;20181;-64
2021/09/09 05:15:00;;;;;;;17.40;15.70;;;15.70;99.90;;;;;;5051951;28;20198;-64
2021/09/09 05:17:26;;;;;;;19.53;16.40;;;15.70;99.90;;;;;;5071470;28;20174;-64
2021/09/09 05:19:51;;;;;;;16.93;15.27;;;15.70;99.90;;;;;;5051722;28;20289;-64
2021/09/09 05:22:17;;;;;;;18.83;14.93;;;15.80;99.90;;;;;;5054779;28;20712;-64
2021/09/09 05:24:42;;;;;;;16.97;15.20;;;15.80;99.90;;;;;;5050844;28;20183;-64
2021/09/09 05:27:08;;;;;;;17.17;14.83;;;15.90;99.90;;;;;;5066156;28;20178;-64
2021/09/09 05:29:34;;;;;;;18.80;15.77;;;15.90;99.90;;;;;;5070883;28;20315;-64
2021/09/09 05:31:59;;;;;;;22.97;16.33;;;15.90;99.90;;;;;;5057969;28;20182;-64
2021/09/09 05:34:25;;;;;;;22.03;15.60;;;15.90;99.90;;;;;;5051054;28;20197;-64
2021/09/09 05:36:50;;;;;;;18.13;16.27;;;15.90;99.90;;;;;;5060954;28;20178;-65
2021/09/09 05:39:16;;;;;;;18.07;15.33;;;16.00;99.90;;;;;;5071099;28;20551;-65
2021/09/09 05:41:42;;;;;;;15.47;13.97;;;16.00;99.90;;;;;;5069337;28;20259;-64
2021/09/09 05:44:07;;;;;;;17.13;15.33;;;16.10;99.90;;;;;;5071056;28;20254;-64
2021/09/09 05:46:33;;;;;;;17.30;14.23;;;16.10;99.90;;;;;;5069462;28;20174;-64
2021/09/09 05:48:59;;;;;;;15.93;14.23;;;16.10;99.90;;;;;;5070902;28;20205;-65
2021/09/09 05:51:24;;;;;;;15.07;13.53;;;16.20;99.90;;;;;;5065351;28;20178;-65
2021/09/09 05:53:50;;;;;;;17.90;15.00;;;16.30;99.90;;;;;;5050998;28;20655;-64
2021/09/09 05:56:16;;;;;;;16.73;14.63;;;16.30;99.90;;;;;;5051978;28;20210;-64
2021/09/09 05:58:42;;;;;;;15.37;13.83;;;16.40;99.90;;;;;;5050879;28;20183;-64
2021/09/09 06:01:07;;;;;;;17.60;15.13;;;16.40;99.90;;;;;;5051765;28;20536;-64
2021/09/09 06:03:37;;;;;;;18.50;14.93;;;16.50;99.90;;;;;;5050947;28;20167;-64
2021/09/09 06:06:04;;;;;;;18.33;16.57;;;16.60;99.90;;;;;;5049236;28;20660;-64
2021/09/09 06:08:32;;;;;;;16.63;14.23;;;16.70;99.90;;;;;;5053713;28;20209;-64
2021/09/09 06:10:58;;;;;;;16.20;14.50;;;16.70;99.90;;;;;;5050105;28;20254;-64
2021/09/09 06:13:24;;;;;;;15.40;13.90;;;16.80;99.90;;;;;;5061460;28;20209;-64
2021/09/09 06:15:49;;;;;;;15.90;14.17;;;16.80;99.90;;;;;;5056000;28;20679;-65
2021/09/09 06:18:15;;;;;;;16.43;14.07;;;16.90;99.90;;;;;;5049510;28;20183;-64
2021/09/09 06:20:40;;;;;;;16.00;13.50;;;17.10;99.90;;;;;;5048851;28;20183;-64
2021/09/09 06:23:06;;;;;;;16.17;13.83;;;17.30;99.90;;;;;;5050396;28;20175;-64
2021/09/09 06:25:32;;;;;;;22.00;13.80;;;17.70;99.90;;;;;;5050627;28;20277;-64
2021/09/09 06:27:57;;;;;;;15.30;12.63;;;18.00;99.90;;;;;;5058253;28;20217;-64
2021/09/09 06:30:23;;;;;;;14.17;12.70;;;18.40;99.90;;;;;;5050338;28;20198;-65
2021/09/09 06:32:49;;;;;;;14.03;12.53;;;18.80;99.90;;;;;;5059878;28;20185;-65
2021/09/09 06:35:14;;;;;;;13.87;12.47;;;19.30;99.90;;;;;;5057207;28;20598;-64
2021/09/09 06:37:40;;;;;;;17.65;13.20;;;19.60;99.90;;;;;;5050919;28;20178;-65
2021/09/09 06:40:06;;;;;;;14.45;12.85;;;19.90;99.90;;;;;;5071881;28;20194;-66
2021/09/09 06:42:32;;;;;;;14.70;13.30;;;20.20;99.90;;;;;;5072102;28;20186;-65
2021/09/09 06:44:57;;;;;;;15.13;12.55;;;20.30;99.90;;;;;;5066027;28;20691;-65
2021/09/09 06:47:23;;;;;;;14.18;11.85;;;20.50;99.90;;;;;;5054107;28;20265;-66
2021/09/09 06:49:50;;;;;;;17.45;13.23;;;20.70;99.90;;;;;;5066660;28;20288;-65
2021/09/09 06:52:16;;;;;;;13.18;11.43;;;21.00;99.90;;;;;;5073952;28;20178;-66
2021/09/09 06:54:42;;;;;;;12.27;11.05;;;21.20;99.90;;;;;;5073941;28;20201;-66
2021/09/09 06:57:08;;;;;;;14.23;12.00;;;21.40;99.90;;;;;;5073911;28;20175;-66
2021/09/09 06:59:33;;;;;;;14.48;13.13;;;21.60;99.90;;;;;;5073539;28;20202;-65
2021/09/09 07:01:59;;;;;;;14.48;11.90;;;21.70;99.90;;;;;;5072325;28;20550;-66
2021/09/09 07:04:25;;;;;;;28.35;13.18;;;21.90;99.90;;;;;;5073614;28;20268;-65
2021/09/09 07:06:50;;;;;;;17.48;12.30;;;22.10;99.90;;;;;;5073740;28;20167;-66
2021/09/09 07:09:16;;;;;;;13.02;11.73;;;22.40;99.90;;;;;;5073612;28;20194;-66
2021/09/09 07:11:42;;;;;;;13.90;11.18;;;22.60;99.90;;;;;;5073455;28;20174;-66
2021/09/09 07:14:07;;;;;;;13.55;12.15;;;23.00;99.90;;;;;;5073520;28;20182;-66
2021/09/09 07:16:33;;;;;;;14.52;12.98;;;23.20;99.90;;;;;;5073728;28;20685;-65
2021/09/09 07:18:59;;;;;;;14.18;12.65;;;23.60;99.90;;;;;;5073633;28;20193;-66
2021/09/09 07:21:24;;;;;;;12.20;11.00;;;23.90;99.90;;;;;;5073288;28;20227;-66
2021/09/09 07:23:50;;;;;;;12.88;11.40;;;24.10;99.90;;;;;;5073497;28;20529;-66
2021/09/09 07:26:16;;;;;;;14.88;12.23;;;24.20;99.90;;;;;;5073356;28;20639;-66
2021/09/09 07:28:42;;;;;;;12.48;10.50;;;24.20;99.90;;;;;;5073374;28;20186;-66
2021/09/09 07:31:07;;;;;;;11.48;10.27;;;24.40;99.90;;;;;;5073225;28;20178;-65
2021/09/09 07:33:33;;;;;;;12.10;10.80;;;24.80;99.90;;;;;;5073281;28;20255;-66
2021/09/09 07:35:59;;;;;;;13.18;10.82;;;25.10;99.90;;;;;;5073317;28;20220;-66
2021/09/09 07:38:24;;;;;;;11.07;9.98;;;25.20;99.90;;;;;;5073185;28;20281;-66
2021/09/09 07:40:50;;;;;;;11.43;10.27;;;25.20;99.90;;;;;;5072811;28;20181;-66
2021/09/09 07:43:16;;;;;;;11.45;10.45;;;25.40;99.90;;;;;;5073168;28;20181;-65
2021/09/09 07:45:41;;;;;;;14.00;9.80;;;25.70;99.90;;;;;;5072982;28;20265;-65
2021/09/09 07:48:08;;;;;;;12.70;10.18;;;25.90;99.90;;;;;;5072889;28;20666;-65
2021/09/09 07:50:33;;;;;;;11.55;10.35;;;26.10;99.90;;;;;;5072788;28;20189;-64
2021/09/09 07:52:59;;;;;;;10.45;9.48;;;26.30;99.90;;;;;;5072965;28;20189;-65
2021/09/09 07:55:25;;;;;;;11.73;10.40;;;26.50;99.90;;;;;;5073019;28;20243;-66
2021/09/09 07:57:50;;;;;;;15.77;10.10;;;26.40;99.90;;;;;;5072850;28;20188;-65
2021/09/09 08:00:17;;;;;;;12.95;10.55;;;26.30;99.90;;;;;;5071420;28;20251;-65
2021/09/09 08:02:43;;;;;;;11.90;10.40;;;26.40;99.90;;;;;;5072741;28;20181;-66
2021/09/09 08:05:09;;;;;;;11.02;10.02;;;26.40;99.90;;;;;;5072842;28;20177;-65
2021/09/09 08:07:39;;;;;;;10.27;9.38;;;26.60;99.90;;;;;;5072534;28;20182;-66
2021/09/09 08:10:06;;;;;;;13.05;10.68;;;26.60;99.90;;;;;;5072187;28;20194;-65
2021/09/09 08:12:31;;;;;;;12.30;11.00;;;26.50;99.90;;;;;;5072384;28;20220;-66
2021/09/09 08:14:57;;;;;;;13.38;9.77;;;26.70;99.90;;;;;;5072482;28;20210;-66
2021/09/09 08:17:22;;;;;;;11.13;9.93;;;26.90;99.90;;;;;;5072514;28;20167;-66
2021/09/09 08:19:48;;;;;;;11.60;10.40;;;27.00;99.90;;;;;;5072058;28;20532;-65
2021/09/09 08:22:13;;;;;;;11.55;10.35;;;27.30;99.90;;;;;;5072306;28;20181;-65
2021/09/09 08:24:39;;;;;;;12.80;10.35;;;27.30;99.90;;;;;;5072170;28;20170;-65
2021/09/09 08:27:05;;;;;;;12.05;10.95;;;27.10;99.90;;;;;;5072415;28;20170;-65
2021/09/09 08:29:30;;;;;;;12.13;9.50;;;27.30;99.90;;;;;;5071893;28;20225;-65
2021/09/09 08:31:57;;;;;;;12.15;10.88;;;27.80;99.90;;;;;;5072184;28;20170;-66
2021/09/09 08:34:23;;;;;;;12.77;11.57;;;28.20;99.90;;;;;;5072026;28;20205;-66
2021/09/09 08:36:49;;;;;;;15.43;10.63;;;28.60;99.90;;;;;;5072189;28;20188;-66
2021/09/09 08:39:14;;;;;;;12.35;11.00;;;28.60;99.90;;;;;;5071995;28;20186;-65
2021/09/09 08:41:42;;;;;;;11.23;10.07;;;28.80;99.90;;;;;;5071822;28;20171;-65
2021/09/09 08:44:10;;;;;;;11.48;10.27;;;28.90;99.90;;;;;;5072115;28;20269;-65
2021/09/09 08:46:35;;;;;;;12.80;11.15;;;29.10;99.90;;;;;;5071880;28;20658;-65
2021/09/09 08:49:01;;;;;;;13.27;11.45;;;29.30;99.90;;;;;;5071797;28;20214;-66
2021/09/09 08:51:27;;;;;;;12.43;11.27;;;29.30;99.90;;;;;;5071554;28;20180;-65
2021/09/09 08:53:53;;;;;;;14.35;10.52;;;29.30;99.90;;;;;;5071827;28;20210;-66
2021/09/09 08:56:18;;;;;;;11.82;10.63;;;29.50;99.90;;;;;;5071596;28;20315;-66
2021/09/09 08:58:44;;;;;;;12.70;11.40;;;29.50;99.90;;;;;;5071403;28;20204;-66
2021/09/09 09:01:18;;;;;;;14.10;12.10;;;29.80;99.90;;;;;;5069874;28;20549;-66
2021/09/09 09:03:50;;;;;;;16.00;12.95;;;29.80;99.90;;;;;;5071561;28;20178;-65
2021/09/09 09:06:37;;;;;;;13.57;10.40;;;30.10;99.90;;;;;;5071611;28;20200;-65
2021/09/09 09:09:05;;;;;;;12.43;11.13;;;30.60;99.90;;;;;;5071649;28;20190;-65
2021/09/09 09:11:40;;;;;;;13.40;11.43;;;30.50;99.90;;;;;;5071115;28;20166;-65
2021/09/09 09:14:07;;;;;;;17.10;10.95;;;30.80;99.90;;;;;;5071848;28;20170;-65
2021/09/09 09:16:33;;;;;;;12.57;10.65;;;31.20;99.90;;;;;;5071399;28;20544;-65
2021/09/09 09:19:01;;;;;;;11.45;10.25;;;31.40;99.90;;;;;;5071557;28;20190;-65
2021/09/09 09:21:29;;;;;;;11.93;10.48;;;31.10;99.90;;;;;;5071267;28;20178;-65
2021/09/09 09:23:58;;;;;;;11.00;9.90;;;31.00;99.90;;;;;;5071403;28;20184;-65
2021/09/09 09:26:23;;;;;;;13.65;11.40;;;31.20;99.90;;;;;;5071436;28;20643;-65
2021/09/09 09:28:50;;;;;;;12.10;10.93;;;31.30;99.90;;;;;;5071545;28;20235;-65
2021/09/09 09:31:43;;;;;;;13.05;10.85;;;31.50;99.90;;;;;;5071213;28;20224;-65
2021/09/09 09:34:09;;;;;;;10.75;9.75;;;31.70;99.90;;;;;;5069195;28;20240;-65
2021/09/09 09:36:36;;;;;;;12.05;10.48;;;32.00;99.90;;;;;;5071230;28;20567;-65
2021/09/09 09:39:20;;;;;;;12.02;9.93;;;32.50;99.90;;;;;;5071319;28;20186;-65
2021/09/09 09:41:55;;;;;;;17.25;11.35;;;32.70;99.90;;;;;;5071141;28;20215;-65
2021/09/09 09:44:47;;;;;;;12.18;10.98;;;32.90;99.90;;;;;;5070356;28;20597;-65
2021/09/09 09:47:15;;;;;;;12.68;11.30;;;33.10;99.90;;;;;;5069490;28;20315;-65
2021/09/09 09:49:43;;;;;;;13.43;10.68;;;33.30;99.90;;;;;;5070750;28;20302;-65
2021/09/09 09:52:13;;;;;;;12.88;10.15;;;33.40;99.90;;;;;;5071139;28;20166;-65
2021/09/09 09:54:49;;;;;;;13.18;11.27;;;33.60;99.90;;;;;;5071111;28;20267;-65
2021/09/09 09:57:16;;;;;;;10.80;9.70;;;33.50;99.90;;;;;;5071234;28;20170;-65
2021/09/09 09:59:42;;;;;;;11.25;9.68;;;34.00;99.90;;;;;;5070399;28;20213;-65
2021/09/09 10:02:10;;;;;;;11.80;9.73;;;34.30;99.90;;;;;;5070597;28;20631;-65
2021/09/09 10:04:36;;;;;;;11.50;9.45;;;34.70;99.90;;;;;;5071105;28;20182;-65
2021/09/09 10:07:02;;;;;;;12.10;10.80;;;34.60;99.90;;;;;;5071462;28;20678;-65
2021/09/09 10:09:28;;;;;;;10.40;8.65;;;34.20;99.90;;;;;;5071645;28;20202;-65
2021/09/09 10:11:53;;;;;;;10.30;8.57;;;34.20;99.90;;;;;;5074731;28;20218;-65
2021/09/09 10:14:22;;;;;;;8.85;7.90;;;33.80;99.90;;;;;;5070592;28;20193;-65
2021/09/09 10:16:50;;;;;;;10.02;7.30;;;33.90;99.90;;;;;;5054656;28;20174;-65
2021/09/09 10:19:27;;;;;;;8.30;7.50;;;34.00;99.90;;;;;;5054643;28;20187;-65
2021/09/09 10:22:05;;;;;;;8.98;7.47;;;34.00;99.90;;;;;;5051194;28;20307;-65
2021/09/09 10:24:33;;;;;;;9.05;8.15;;;33.80;99.90;;;;;;5074541;28;20261;-65
2021/09/09 10:27:17;;;;;;;10.05;7.65;;;33.70;99.90;;;;;;5065972;28;20232;-65
2021/09/09 10:29:57;;;;;;;8.88;7.97;;;33.50;99.90;;;;;;5054542;28;20603;-65
2021/09/09 10:32:31;;;;;;;10.35;8.82;;;33.10;99.90;;;;;;5054462;28;20178;-65
2021/09/09 10:35:18;;;;;;;11.60;9.02;;;32.60;99.90;;;;;;5055549;28;20203;-65
2021/09/09 10:37:54;;;;;;;9.00;8.10;;;32.20;99.90;;;;;;5054267;28;20171;-65
2021/09/09 10:40:36;;;;;;;11.48;9.15;;;32.20;99.90;;;;;;5058007;28;20230;-66
2021/09/09 10:43:04;;;;;;;9.07;8.27;;;32.40;99.90;;;;;;5054433;28;20171;-66
2021/09/09 10:45:38;;;;;;;11.20;8.18;;;32.10;99.90;;;;;;5068081;28;20181;-66
2021/09/09 10:48:09;;;;;;;9.15;7.93;;;32.00;99.90;;;;;;5074186;28;20175;-66
2021/09/09 10:53:08;;;;;;;11.18;8.27;;;32.20;99.90;;;;;;5032667;28;20346;-66
2021/09/09 10:55:40;;;;;;;13.98;9.43;;;32.00;99.90;;;;;;5035057;28;20261;-66
2021/09/09 10:58:14;;;;;;;14.15;9.40;;;31.90;99.90;;;;;;5034239;28;20171;-66
2021/09/09 11:01:05;;;;;;;11.57;10.50;;;31.90;99.90;;;;;;5035806;28;20592;-66
2021/09/09 11:03:44;;;;;;;14.25;9.13;;;31.70;99.90;;;;;;5041750;28;20233;-65
2021/09/09 11:06:14;;;;;;;13.25;8.93;;;30.90;99.90;;;;;;5033987;28;20521;-67
2021/09/09 11:08:42;;;;;;;10.77;8.68;;;30.90;99.90;;;;;;5049617;28;20182;-67
2021/09/09 11:11:18;;;;;;;10.05;8.98;;;31.00;99.90;;;;;;5042320;28;20191;-66
2021/09/09 11:13:44;;;;;;;14.30;9.93;;;30.80;99.90;;;;;;5033214;28;20178;-66
2021/09/09 11:16:26;;;;;;;12.73;9.07;;;30.90;99.90;;;;;;5034325;28;20203;-66
2021/09/09 11:18:52;;;;;;;10.73;8.85;;;31.20;99.90;;;;;;5034772;28;20729;-66
2021/09/09 11:21:28;;;;;;;14.57;8.27;;;31.90;99.90;;;;;;5037821;28;20294;-67
2021/09/09 11:24:05;;;;;;;12.70;9.05;;;32.60;99.90;;;;;;5032737;28;20171;-66
2021/09/09 11:26:33;;;;;;;10.48;9.48;;;32.60;99.90;;;;;;5033333;28;20183;-67
2021/09/09 11:29:00;;;;;;;11.38;8.93;;;32.80;99.90;;;;;;5033479;28;20227;-67
2021/09/09 11:31:27;;;;;;;13.95;9.50;;;33.30;99.90;;;;;;5034302;28;20176;-68
2021/09/09 11:33:57;;;;;;;11.63;8.30;;;33.80;99.90;;;;;;5033453;28;20261;-68
2021/09/09 11:36:28;;;;;;;11.90;8.88;;;34.20;99.90;;;;;;5043407;28;20206;-68
2021/09/09 11:38:56;;;;;;;11.85;8.63;;;34.30;99.90;;;;;;5053366;28;20187;-66
2021/09/09 11:41:23;;;;;;;10.40;9.35;;;34.40;99.90;;;;;;5042923;28;20179;-66
2021/09/09 11:43:50;;;;;;;14.02;8.70;;;34.30;99.90;;;;;;5038302;28;20175;-66
2021/09/09 11:46:51;;;;;;;10.25;8.98;;;33.90;99.90;;;;;;5052996;28;20171;-66
2021/09/09 11:49:19;;;;;;;16.40;10.85;;;33.20;99.90;;;;;;5043818;28;20214;-64
2021/09/09 11:51:50;;;;;;;10.77;8.85;;;32.50;99.90;;;;;;5032555;28;20195;-68
2021/09/09 11:54:19;;;;;;;9.77;8.77;;;32.50;99.90;;;;;;5035303;28;20179;-67
2021/09/09 11:56:47;;;;;;;12.98;9.27;;;32.20;99.90;;;;;;5032797;28;20630;-67
2021/09/09 11:59:20;;;;;;;12.02;9.32;;;32.20;99.90;;;;;;5039686;28;20225;-66
2021/09/09 12:01:58;;;;;;;9.13;8.20;;;31.90;99.90;;;;;;5052587;28;20267;-65
2021/09/09 12:04:24;;;;;;;10.82;8.23;;;31.50;99.90;;;;;;5044299;28;20172;-67
2021/09/09 12:06:50;;;;;;;10.82;8.38;;;31.30;99.90;;;;;;5032591;28;20235;-67
2021/09/09 12:09:37;;;;;;;14.02;8.77;;;31.00;99.90;;;;;;5038485;28;20591;-66
2021/09/09 12:12:06;;;;;;;10.90;9.68;;;30.90;99.90;;;;;;5052494;28;20265;-66
2021/09/09 12:14:33;;;;;;;10.20;9.20;;;30.50;99.90;;;;;;5043810;28;20207;-66
2021/09/09 12:17:06;;;;;;;10.07;9.15;;;30.20;99.90;;;;;;5032507;28;20181;-66
2021/09/09 12:19:59;;;;;;;12.93;8.75;;;30.10;99.90;;;;;;5039134;28;20194;-65
2021/09/09 12:22:54;;;;;;;9.45;8.48;;;30.00;99.90;;;;;;5032335;28;20230;-66
2021/09/09 12:25:29;;;;;;;11.40;9.07;;;30.00;99.90;;;;;;5045640;28;20210;-66
2021/09/09 12:28:04;;;;;;;8.60;7.80;;;30.10;99.90;;;;;;5051008;28;20185;-66
2021/09/09 12:30:32;;;;;;;13.07;7.57;;;30.20;99.90;;;;;;5037081;28;20615;-67
2021/09/09 12:33:00;;;;;;;7.72;7.03;;;29.90;99.90;;;;;;5041642;28;20185;-66
2021/09/09 12:35:27;;;;;;;7.20;6.60;;;29.60;99.90;;;;;;5051979;28;20400;-67
2021/09/09 12:38:28;;;;;;;7.75;7.10;;;29.40;99.90;;;;;;5050402;28;20174;-66